createdAt,value
2022-08-22T00:24:52.902Z,998.12
2022-08-22T00:53:58.601Z,998.13
2022-08-22T01:23:11.575Z,997.89
2022-08-22T01:52:20.031Z,997.83
2022-08-22T02:21:13.494Z,997.88
2022-08-22T02:50:28.014Z,997.9
2022-08-22T03:19:35.088Z,997.95
2022-08-22T03:48:47.026Z,998.25
2022-08-22T04:17:59.137Z,998.22
2022-08-22T04:46:57.320Z,998.27
2022-08-22T05:16:12.175Z,998.37
2022-08-22T05:45:31.514Z,998.36
2022-08-22T06:14:50.648Z,998.47
2022-08-22T06:44:05.376Z,998.76
2022-08-22T07:13:23.608Z,998.8
2022-08-22T07:42:48.046Z,998.93
2022-08-22T08:11:37.360Z,998.86
2022-08-22T08:40:39.143Z,998.72
2022-08-22T09:09:54.614Z,998.59
2022-08-22T09:38:34.763Z,998.54
2022-08-22T10:07:29.073Z,998.37
2022-08-22T10:36:40.322Z,998.1
2022-08-22T11:05:51.259Z,997.77
2022-08-22T11:34:31.442Z,997.36
2022-08-22T12:03:58.986Z,997.23
2022-08-22T12:32:29.699Z,996.96
2022-08-22T13:01:50.800Z,996.7
2022-08-22T13:30:57.043Z,996.58
2022-08-22T14:00:29.559Z,996.18
2022-08-22T14:28:53.458Z,996
2022-08-22T14:57:40.655Z,995.76
2022-08-22T15:26:55.970Z,995.63
2022-08-22T15:55:43.796Z,995.47
2022-08-22T16:24:53.430Z,995.38
2022-08-22T16:53:35.323Z,995.37
2022-08-22T17:22:44.143Z,995.42
2022-08-22T17:51:38.847Z,995.59
2022-08-22T18:20:42.041Z,995.85
2022-08-22T18:49:39.878Z,996.05
2022-08-22T19:18:40.474Z,996.41
2022-08-22T19:47:43.521Z,996.61
2022-08-22T20:16:39.783Z,996.69
2022-08-22T20:45:50.105Z,996.66
2022-08-22T21:14:41.837Z,996.81
2022-08-22T21:43:54.470Z,996.96
2022-08-22T22:12:31.482Z,997.26
2022-08-22T22:41:48.083Z,997.35
2022-08-22T23:10:56.574Z,997.85
2022-08-22T23:40:13.238Z,998.05
